Time;durP1;ratioP1;P1;durP2;ratioP2;P2;SDS_P1;SDS_P2;PMS_P1;PMS_P2;Temp;Humidity;BMP_temperature;BMP_pressure;BME280_temperature;BME280_humidity;BME280_pressure;Samples;Min_cycle;Max_cycle;Signal;HPM_P1;HPM_P2
2022/01/24 00:00:13;;;;;;;42.92;21.67;;;5.50;66.10;;;;;;5060616;28;20099;-46
2022/01/24 00:02:41;;;;;;;46.40;22.77;;;5.50;65.50;;;;;;5060387;28;20514;-47
2022/01/24 00:05:07;;;;;;;48.33;23.58;;;5.50;66.00;;;;;;5060558;28;20423;-48
2022/01/24 00:07:33;;;;;;;45.13;22.25;;;5.50;66.80;;;;;;5060660;28;20067;-47
2022/01/24 00:10:03;;;;;;;44.55;22.83;;;5.50;65.20;;;;;;5060658;28;20029;-46
2022/01/24 00:15:22;;;;;;;43.43;22.27;;;5.40;66.10;;;;;;5061025;28;20044;-47
2022/01/24 00:17:51;;;;;;;44.35;21.92;;;5.40;67.10;;;;;;5060068;28;20620;-46
2022/01/24 00:28:17;;;;;;;40.38;20.48;;;5.30;66.70;;;;;;5060294;28;20547;-47
2022/01/24 00:30:43;;;;;;;40.45;19.02;;;5.30;67.50;;;;;;5060231;28;20033;-46
2022/01/24 00:33:09;;;;;;;39.00;19.65;;;5.30;65.70;;;;;;5059726;28;20031;-48
2022/01/24 00:35:34;;;;;;;43.22;20.80;;;5.20;66.80;;;;;;5060166;28;20028;-50
2022/01/24 00:38:02;;;;;;;39.58;19.73;;;5.20;67.50;;;;;;5060171;28;20509;-47
2022/01/24 00:40:30;;;;;;;39.63;19.73;;;5.20;67.40;;;;;;5060075;28;20021;-46
2022/01/24 00:42:58;;;;;;;37.42;18.45;;;5.20;66.70;;;;;;5059901;28;20033;-46
2022/01/24 00:53:31;;;;;;;37.38;18.58;;;5.20;66.10;;;;;;5059846;28;20032;-47
2022/01/24 00:55:57;;;;;;;39.08;19.48;;;5.20;66.80;;;;;;5059367;28;20078;-48
2022/01/24 00:58:23;;;;;;;37.28;19.05;;;5.20;67.10;;;;;;5059694;28;20020;-46
2022/01/24 01:00:49;;;;;;;36.65;16.85;;;5.20;65.90;;;;;;5059632;28;20465;-48
2022/01/24 01:03:15;;;;;;;37.67;18.30;;;5.30;66.70;;;;;;5059331;28;20067;-52
2022/01/24 01:06:05;;;;;;;36.55;19.15;;;5.30;65.60;;;;;;5059389;28;20033;-48
2022/01/24 01:19:31;;;;;;;33.37;16.93;;;5.30;66.70;;;;;;5059183;28;20040;-50
2022/01/24 01:21:57;;;;;;;32.53;15.57;;;5.20;67.10;;;;;;5058837;28;20044;-47
2022/01/24 01:24:24;;;;;;;33.10;16.25;;;5.20;66.60;;;;;;5059019;28;20047;-46
2022/01/24 01:27:03;;;;;;;33.30;16.00;;;5.20;67.00;;;;;;5058700;28;20023;-46
2022/01/24 01:29:35;;;;;;;36.63;16.17;;;5.20;67.00;;;;;;5058906;28;20021;-48
2022/01/24 01:37:51;;;;;;;32.77;15.77;;;5.10;66.60;;;;;;5059061;28;20385;-46
2022/01/24 01:56:28;;;;;;;30.98;14.52;;;4.90;68.10;;;;;;5058633;28;20025;-46
2022/01/24 01:58:54;;;;;;;29.88;14.15;;;4.90;67.50;;;;;;5058636;28;20162;-49
2022/01/24 02:01:19;;;;;;;30.48;13.75;;;4.90;68.50;;;;;;5058664;28;20021;-48
2022/01/24 02:03:46;;;;;;;30.08;14.10;;;4.90;67.50;;;;;;5058547;28;20031;-48
2022/01/24 02:06:12;;;;;;;27.55;13.00;;;4.90;68.20;;;;;;5058413;28;20036;-46
2022/01/24 02:08:40;;;;;;;28.40;14.50;;;5.00;67.60;;;;;;5058526;28;20100;-48
2022/01/24 02:11:09;;;;;;;27.15;13.63;;;4.90;66.90;;;;;;5058349;28;20096;-47
2022/01/24 02:13:35;;;;;;;28.75;14.32;;;4.90;68.20;;;;;;5058166;28;20048;-46
2022/01/24 02:21:41;;;;;;;29.10;13.77;;;4.90;67.20;;;;;;5056732;28;20420;-48
2022/01/24 02:24:08;;;;;;;27.23;12.38;;;4.90;66.60;;;;;;5057929;28;20040;-48
2022/01/24 02:26:34;;;;;;;30.73;13.63;;;4.90;67.70;;;;;;5058067;28;20020;-48
2022/01/24 02:29:11;;;;;;;30.02;13.57;;;5.00;68.40;;;;;;5057661;28;20040;-49
2022/01/24 02:31:50;;;;;;;28.88;13.40;;;5.00;67.60;;;;;;5057622;28;20029;-49
2022/01/24 02:34:45;;;;;;;28.00;13.75;;;5.00;67.30;;;;;;5057820;28;20487;-48
2022/01/24 02:37:12;;;;;;;;;;;5.00;67.70;;;;;;5057915;28;20040;-48
2022/01/24 02:53:19;;;;;;;24.58;12.80;;;4.90;67.60;;;;;;5057410;28;20037;-47
2022/01/24 02:55:45;;;;;;;27.77;13.95;;;4.90;68.00;;;;;;5057794;28;20036;-50
2022/01/24 02:58:11;;;;;;;26.70;12.02;;;4.90;67.40;;;;;;5057716;28;20025;-46
2022/01/24 03:00:38;;;;;;;24.73;12.23;;;4.90;68.50;;;;;;5057693;28;20107;-47
2022/01/24 03:03:05;;;;;;;28.25;13.52;;;4.90;67.40;;;;;;5057444;28;20029;-48
2022/01/24 03:05:31;;;;;;;24.63;12.50;;;4.90;67.70;;;;;;5057457;28;20025;-46
2022/01/24 03:07:57;;;;;;;28.48;14.07;;;4.90;68.00;;;;;;5057723;28;20037;-47
2022/01/24 03:10:37;;;;;;;31.02;14.43;;;4.90;67.10;;;;;;5057638;28;20048;-48
2022/01/24 03:15:51;;;;;;;24.85;13.30;;;4.90;67.00;;;;;;5057714;28;20048;-48
2022/01/24 03:18:18;;;;;;;24.98;12.10;;;4.80;68.00;;;;;;5057338;28;20435;-46
2022/01/24 03:20:45;;;;;;;21.80;11.95;;;4.80;67.50;;;;;;5057560;28;20021;-47
2022/01/24 03:23:12;;;;;;;25.45;12.40;;;4.80;68.10;;;;;;5057307;28;20029;-48
2022/01/24 03:25:38;;;;;;;26.10;12.07;;;4.80;67.50;;;;;;5057427;28;20024;-51
2022/01/24 03:28:05;;;;;;;21.85;11.85;;;4.80;67.60;;;;;;5057400;28;20029;-47
2022/01/24 03:30:32;;;;;;;24.02;11.60;;;4.80;67.80;;;;;;5058206;28;20021;-48
2022/01/24 03:32:59;;;;;;;27.25;12.77;;;4.80;68.50;;;;;;5061315;28;20447;-46
2022/01/24 03:35:25;;;;;;;26.50;12.90;;;4.80;68.50;;;;;;5061122;28;20021;-47
2022/01/24 03:37:50;;;;;;;27.50;12.85;;;4.80;66.90;;;;;;5061238;28;20388;-47
2022/01/24 03:40:16;;;;;;;23.25;11.30;;;4.80;67.50;;;;;;5061314;28;20029;-47
2022/01/24 03:42:42;;;;;;;24.13;11.30;;;4.80;68.20;;;;;;5060866;28;20027;-46
2022/01/24 03:45:10;;;;;;;25.00;12.18;;;4.70;66.80;;;;;;5061098;28;20047;-46
2022/01/24 03:50:17;;;;;;;22.95;11.75;;;4.70;66.90;;;;;;5061084;28;20075;-47
2022/01/24 03:52:44;;;;;;;26.75;12.27;;;4.60;67.80;;;;;;5060829;28;20025;-46
2022/01/24 03:55:10;;;;;;;26.45;12.32;;;4.70;67.50;;;;;;5060652;28;20108;-47
2022/01/24 03:57:37;;;;;;;24.63;11.50;;;4.70;67.50;;;;;;5060859;28;20511;-48
2022/01/24 04:00:08;;;;;;;24.40;11.73;;;4.70;67.60;;;;;;5060816;28;20025;-50
2022/01/24 04:02:34;;;;;;;26.90;12.32;;;4.70;66.70;;;;;;5060470;28;20056;-46
2022/01/24 04:05:01;;;;;;;24.10;11.85;;;4.70;66.40;;;;;;5061138;28;20052;-47
2022/01/24 04:07:26;;;;;;;23.02;11.25;;;4.70;67.20;;;;;;5060483;28;20037;-48
2022/01/24 04:09:52;;;;;;;23.95;11.77;;;4.70;67.40;;;;;;5060475;28;20021;-47
2022/01/24 04:12:23;;;;;;;24.05;12.43;;;4.70;68.60;;;;;;5060594;28;20025;-48
2022/01/24 04:22:29;;;;;;;22.35;11.15;;;4.80;67.60;;;;;;5059977;28;20053;-47
2022/01/24 04:25:00;;;;;;;23.20;11.15;;;4.80;67.00;;;;;;5060212;28;20051;-49
2022/01/24 04:27:27;;;;;;;27.13;12.80;;;4.90;67.30;;;;;;5059973;28;20389;-46
2022/01/24 04:29:53;;;;;;;25.38;12.13;;;4.80;67.20;;;;;;5060295;28;20055;-46
2022/01/24 04:32:19;;;;;;;20.77;10.70;;;4.80;68.50;;;;;;5060019;28;20078;-47
2022/01/24 04:34:45;;;;;;;24.30;11.57;;;4.80;68.30;;;;;;5059980;28;20044;-47
2022/01/24 04:37:12;;;;;;;24.92;11.73;;;4.80;68.00;;;;;;5060544;28;20033;-47
2022/01/24 04:39:37;;;;;;;23.98;10.60;;;4.80;67.40;;;;;;5059985;28;20025;-47
2022/01/24 04:42:10;;;;;;;21.02;9.45;;;4.70;69.20;;;;;;5058733;28;20063;-49
2022/01/24 04:44:52;;;;;;;23.55;11.05;;;4.70;67.90;;;;;;5059739;28;20127;-48
2022/01/24 04:47:26;;;;;;;23.92;11.15;;;4.70;68.30;;;;;;5059930;28;20140;-47
2022/01/24 04:50:42;;;;;;;23.33;10.27;;;4.70;67.60;;;;;;5059596;28;20032;-48
2022/01/24 04:53:01;;;;;;;26.23;11.38;;;4.70;67.20;;;;;;5058365;28;20267;-48
2022/01/24 04:55:27;;;;;;;21.60;10.05;;;4.60;67.30;;;;;;5059624;28;20035;-47
2022/01/24 04:57:52;;;;;;;21.83;11.20;;;4.60;67.20;;;;;;5059734;28;20358;-47
2022/01/24 05:00:18;;;;;;;24.88;12.57;;;4.60;68.40;;;;;;5059770;28;20404;-48
2022/01/24 05:02:44;;;;;;;25.33;11.55;;;4.60;68.60;;;;;;5059384;28;20048;-47
2022/01/24 05:05:15;;;;;;;20.90;10.52;;;4.60;68.40;;;;;;5059856;28;20075;-47
2022/01/24 05:07:41;;;;;;;25.23;11.43;;;4.60;66.90;;;;;;5059157;28;20029;-47
2022/01/24 05:25:58;;;;;;;19.23;9.65;;;4.60;66.80;;;;;;5059817;28;20271;-47
2022/01/24 05:28:25;;;;;;;20.67;9.68;;;4.60;67.20;;;;;;5059057;28;20032;-47
2022/01/24 05:30:51;;;;;;;19.67;9.77;;;4.60;67.40;;;;;;5059580;28;20029;-46
2022/01/24 05:33:17;;;;;;;22.23;10.25;;;4.60;67.60;;;;;;5059315;28;20071;-46
2022/01/24 05:35:43;;;;;;;20.52;9.45;;;4.60;67.20;;;;;;5058837;28;20048;-47
2022/01/24 05:38:10;;;;;;;21.48;10.25;;;4.60;67.60;;;;;;5059037;28;20033;-48
2022/01/24 05:40:36;;;;;;;21.15;10.23;;;4.70;67.00;;;;;;5058722;28;20100;-47
2022/01/24 05:43:02;;;;;;;20.60;10.88;;;4.70;66.90;;;;;;5058979;28;20036;-46
2022/01/24 05:45:28;;;;;;;20.65;9.75;;;4.70;67.40;;;;;;5058669;28;20017;-47
2022/01/24 05:47:54;;;;;;;20.70;9.85;;;4.70;67.90;;;;;;5058601;28;20025;-47
2022/01/24 05:50:20;;;;;;;22.08;11.10;;;4.70;67.30;;;;;;5058913;28;20021;-46
2022/01/24 05:52:46;;;;;;;21.67;10.00;;;4.70;67.50;;;;;;5058667;28;20032;-46
2022/01/24 05:55:12;;;;;;;18.52;9.30;;;4.60;68.40;;;;;;5058179;28;20021;-48
2022/01/24 05:57:38;;;;;;;21.17;9.73;;;4.70;69.00;;;;;;5058881;28;20036;-49
2022/01/24 06:00:06;;;;;;;20.90;10.77;;;4.70;68.60;;;;;;5058229;28;20017;-46
2022/01/24 06:02:32;;;;;;;19.25;9.80;;;4.70;68.00;;;;;;5058128;28;20122;-47
2022/01/24 06:04:58;;;;;;;19.73;9.65;;;4.70;67.20;;;;;;5058384;28;20021;-49
2022/01/24 06:07:24;;;;;;;21.92;9.85;;;4.70;68.20;;;;;;5058260;28;20025;-47
2022/01/24 06:09:50;;;;;;;20.33;10.07;;;4.70;68.00;;;;;;5058243;28;20055;-47
2022/01/24 06:12:16;;;;;;;17.10;9.00;;;4.70;68.70;;;;;;5058342;28;20029;-50
2022/01/24 06:14:41;;;;;;;19.25;8.40;;;4.60;68.50;;;;;;5058086;28;20017;-47
2022/01/24 06:17:08;;;;;;;15.63;8.23;;;4.70;68.90;;;;;;5058295;28;20024;-46
2022/01/24 06:19:33;;;;;;;16.75;8.52;;;4.70;68.80;;;;;;5057983;28;20036;-49
2022/01/24 06:21:59;;;;;;;23.38;9.50;;;4.60;68.80;;;;;;5058002;28;20404;-48
2022/01/24 06:24:25;;;;;;;18.40;9.45;;;4.70;68.70;;;;;;5057875;28;20389;-46
2022/01/24 06:26:51;;;;;;;19.65;10.00;;;4.70;67.60;;;;;;5058060;28;20021;-46
2022/01/24 06:29:18;;;;;;;18.42;9.20;;;4.70;67.40;;;;;;5058332;28;20028;-48
2022/01/24 06:31:44;;;;;;;19.95;10.07;;;4.70;67.50;;;;;;5057927;28;20128;-48
2022/01/24 06:34:10;;;;;;;17.13;9.23;;;4.70;67.70;;;;;;5057814;28;20025;-47
2022/01/24 06:36:36;;;;;;;19.02;9.73;;;4.70;67.50;;;;;;5057979;28;20033;-47
2022/01/24 06:39:04;;;;;;;19.90;9.27;;;4.70;67.60;;;;;;5057960;28;20025;-47
2022/01/24 06:41:33;;;;;;;17.67;9.68;;;4.70;68.20;;;;;;5057921;28;20106;-47
2022/01/24 06:44:00;;;;;;;20.40;10.68;;;4.70;67.90;;;;;;5057531;28;20392;-50
2022/01/24 06:46:26;;;;;;;17.52;8.52;;;4.70;67.90;;;;;;5057650;28;20025;-47
2022/01/24 06:48:52;;;;;;;19.38;10.40;;;4.70;68.80;;;;;;5058122;28;20487;-46
2022/01/24 06:51:19;;;;;;;18.60;9.55;;;4.70;68.10;;;;;;5057836;28;20021;-46
2022/01/24 06:53:45;;;;;;;18.38;9.90;;;4.70;68.40;;;;;;5058084;28;20044;-46
2022/01/24 06:56:12;;;;;;;17.83;9.20;;;4.70;68.60;;;;;;5057789;28;20472;-48
2022/01/24 06:58:38;;;;;;;18.60;9.85;;;4.70;68.90;;;;;;5057629;28;20079;-46
2022/01/24 07:01:04;;;;;;;16.75;8.98;;;4.70;68.80;;;;;;5057693;28;20033;-48
2022/01/24 07:03:30;;;;;;;18.45;9.90;;;4.70;67.90;;;;;;5057665;28;20021;-46
2022/01/24 07:05:55;;;;;;;20.42;9.82;;;4.70;67.30;;;;;;5059023;28;20105;-48
2022/01/24 07:08:21;;;;;;;15.70;8.63;;;4.70;67.30;;;;;;5061610;28;20029;-52
2022/01/24 07:10:47;;;;;;;17.30;8.93;;;4.60;67.40;;;;;;5061461;28;20028;-50
2022/01/24 07:13:13;;;;;;;18.42;9.38;;;4.60;68.30;;;;;;5061990;28;20021;-47
2022/01/24 07:15:52;;;;;;;19.15;9.10;;;4.50;68.10;;;;;;5061566;28;20403;-47
2022/01/24 07:19:03;;;;;;;17.60;9.57;;;4.50;68.00;;;;;;5061498;28;20028;-49
2022/01/24 07:21:07;;;;;;;16.48;9.15;;;4.50;67.90;;;;;;5063262;28;20040;-47
2022/01/24 07:23:34;;;;;;;17.63;10.15;;;4.50;68.00;;;;;;5061323;28;20025;-47
2022/01/24 07:26:00;;;;;;;17.85;9.98;;;4.50;67.60;;;;;;5061502;28;20029;-46
2022/01/24 07:28:26;;;;;;;17.40;9.82;;;4.40;67.30;;;;;;5061238;28;20052;-47
2022/01/24 07:30:51;;;;;;;18.67;9.63;;;4.50;69.10;;;;;;5061387;28;20025;-50
2022/01/24 07:33:17;;;;;;;19.00;9.25;;;4.50;69.20;;;;;;5061327;28;20021;-49
2022/01/24 07:35:44;;;;;;;16.95;9.48;;;4.50;69.30;;;;;;5061148;28;20037;-49
2022/01/24 07:38:10;;;;;;;17.48;9.23;;;4.50;68.20;;;;;;5061045;28;20068;-51
2022/01/24 07:40:40;;;;;;;18.67;9.25;;;4.50;69.10;;;;;;5060857;28;20090;-48
2022/01/24 07:43:11;;;;;;;18.10;9.73;;;4.50;69.10;;;;;;5061097;28;20035;-47
2022/01/24 07:45:39;;;;;;;17.50;8.88;;;4.60;68.90;;;;;;5060733;28;20029;-51
2022/01/24 07:48:05;;;;;;;19.02;10.70;;;4.60;68.90;;;;;;5059701;28;20055;-47
2022/01/24 07:50:35;;;;;;;15.20;9.73;;;4.70;68.70;;;;;;5061023;28;20031;-49
2022/01/24 07:53:01;;;;;;;18.13;9.35;;;4.70;67.60;;;;;;5061001;28;20059;-48
2022/01/24 07:55:27;;;;;;;16.60;9.73;;;4.60;67.90;;;;;;5060741;28;20021;-49
2022/01/24 07:57:53;;;;;;;16.60;8.85;;;4.60;67.80;;;;;;5060888;28;20103;-48
2022/01/24 08:00:19;;;;;;;17.17;9.18;;;4.60;67.40;;;;;;5060737;28;20067;-51
2022/01/24 08:02:45;;;;;;;15.38;7.50;;;4.60;68.50;;;;;;5060417;28;20035;-49
2022/01/24 08:05:11;;;;;;;17.83;8.98;;;4.60;68.70;;;;;;5060093;28;20412;-51
2022/01/24 08:07:38;;;;;;;15.27;7.90;;;4.60;68.70;;;;;;5044943;28;20040;-46
2022/01/24 08:10:05;;;;;;;17.92;9.93;;;4.60;69.00;;;;;;5040688;28;20028;-49
2022/01/24 08:12:32;;;;;;;18.60;10.00;;;4.70;68.80;;;;;;5040675;28;20540;-52
2022/01/24 08:15:00;;;;;;;19.42;10.00;;;4.70;67.80;;;;;;5040496;28;20053;-52
2022/01/24 08:17:26;;;;;;;18.02;9.23;;;4.70;68.70;;;;;;5040504;28;20033;-48
2022/01/24 08:19:52;;;;;;;20.63;10.65;;;4.70;68.60;;;;;;5040500;28;20077;-51
2022/01/24 08:22:18;;;;;;;22.80;10.50;;;4.70;68.00;;;;;;5040055;28;20474;-50
2022/01/24 08:24:45;;;;;;;19.45;9.63;;;4.60;68.70;;;;;;5040443;28;20026;-49
2022/01/24 08:27:15;;;;;;;20.48;9.45;;;4.60;68.40;;;;;;5039968;28;20128;-53
2022/01/24 08:29:43;;;;;;;16.90;9.20;;;4.60;68.10;;;;;;5040088;28;20381;-47
2022/01/24 08:32:09;;;;;;;20.80;11.45;;;4.60;69.20;;;;;;5040313;28;20036;-50
2022/01/24 08:34:35;;;;;;;20.05;10.25;;;4.70;68.10;;;;;;5040241;28;20017;-49
2022/01/24 08:37:01;;;;;;;20.83;10.60;;;4.70;69.00;;;;;;5040033;28;20029;-49
2022/01/24 08:39:27;;;;;;;21.38;10.35;;;4.70;68.90;;;;;;5040204;28;20071;-52
2022/01/24 08:44:32;;;;;;;20.40;10.00;;;4.70;68.60;;;;;;5040079;28;20052;-49
2022/01/24 08:46:59;;;;;;;19.58;10.95;;;4.80;68.20;;;;;;5039960;28;20079;-50
2022/01/24 08:49:24;;;;;;;22.13;10.70;;;4.80;68.80;;;;;;5039799;28;20025;-48
2022/01/24 08:51:51;;;;;;;19.83;10.63;;;4.80;68.30;;;;;;5039917;28;20077;-50
2022/01/24 08:54:17;;;;;;;20.15;10.38;;;4.80;68.50;;;;;;5039911;28;20018;-47
2022/01/24 08:56:45;;;;;;;20.88;10.05;;;4.80;68.60;;;;;;5038262;28;20033;-51
2022/01/24 08:59:11;;;;;;;20.92;11.73;;;4.80;69.50;;;;;;5039533;28;20128;-50
2022/01/24 09:01:36;;;;;;;20.58;10.85;;;4.80;67.90;;;;;;5039652;28;20061;-48
2022/01/24 09:04:02;;;;;;;22.95;11.43;;;4.90;68.10;;;;;;5039654;28;20049;-51
2022/01/24 09:06:29;;;;;;;22.73;11.02;;;4.80;68.60;;;;;;5039574;28;20022;-49
2022/01/24 09:08:56;;;;;;;21.17;11.13;;;4.90;68.60;;;;;;5039905;28;20059;-51
2022/01/24 09:11:24;;;;;;;23.65;12.18;;;4.90;68.20;;;;;;5039587;28;20029;-50
2022/01/24 09:13:50;;;;;;;23.08;11.70;;;4.90;68.30;;;;;;5039127;28;20025;-50
2022/01/24 09:16:16;;;;;;;24.48;11.80;;;4.90;68.40;;;;;;5038917;28;20031;-52
2022/01/24 09:18:42;;;;;;;24.20;11.80;;;4.90;68.70;;;;;;5038714;28;20026;-48
2022/01/24 09:21:08;;;;;;;25.65;12.32;;;4.90;68.40;;;;;;5038864;28;20053;-51
2022/01/24 09:23:33;;;;;;;23.15;12.48;;;4.90;67.50;;;;;;5037213;28;20095;-48
2022/01/24 09:25:59;;;;;;;22.20;12.57;;;4.90;68.90;;;;;;5038668;28;20087;-50
2022/01/24 09:28:25;;;;;;;26.98;14.63;;;4.90;68.70;;;;;;5037979;28;20020;-52
2022/01/24 09:30:51;;;;;;;30.02;15.90;;;4.90;67.90;;;;;;5038770;28;20389;-51
2022/01/24 09:33:18;;;;;;;26.35;13.60;;;5.00;68.20;;;;;;5038700;28;20032;-51
2022/01/24 09:35:44;;;;;;;27.63;14.18;;;5.00;69.20;;;;;;5038406;28;20029;-52
2022/01/24 09:38:11;;;;;;;25.85;13.82;;;5.00;69.00;;;;;;5038231;28;20030;-50
2022/01/24 09:40:38;;;;;;;27.05;13.82;;;5.10;69.00;;;;;;5038293;28;20029;-52
2022/01/24 09:43:05;;;;;;;26.20;12.82;;;5.10;68.20;;;;;;5038314;28;20037;-52
2022/01/24 09:45:31;;;;;;;26.58;11.88;;;5.20;68.10;;;;;;5038219;28;20493;-50
2022/01/24 09:47:57;;;;;;;22.95;11.52;;;5.10;68.50;;;;;;5038133;28;20508;-53
2022/01/24 09:50:24;;;;;;;21.38;11.43;;;5.20;68.50;;;;;;5038265;28;20029;-53
2022/01/24 09:52:51;;;;;;;23.58;11.80;;;5.20;69.00;;;;;;5037882;28;20033;-50
2022/01/24 09:55:19;;;;;;;22.20;10.90;;;5.20;68.20;;;;;;5037970;28;20124;-51
2022/01/24 09:57:47;;;;;;;23.60;11.45;;;5.20;67.80;;;;;;5038070;28;20108;-51
2022/01/24 10:00:17;;;;;;;22.38;12.00;;;5.20;68.60;;;;;;5037887;28;20405;-52
2022/01/24 10:02:46;;;;;;;22.63;12.27;;;5.20;68.90;;;;;;5038303;28;20087;-54
2022/01/24 10:05:18;;;;;;;21.42;11.40;;;5.20;68.40;;;;;;5037822;28;20026;-51
2022/01/24 10:07:54;;;;;;;25.88;12.48;;;5.20;69.00;;;;;;5038261;28;20031;-52
2022/01/24 10:10:31;;;;;;;24.95;13.18;;;5.30;68.60;;;;;;5037709;28;20017;-54
2022/01/24 10:16:25;;;;;;;24.40;11.73;;;5.40;68.00;;;;;;5037849;28;20440;-51
2022/01/24 10:19:07;;;;;;;23.73;12.65;;;5.40;68.00;;;;;;5038077;28;20056;-54
2022/01/24 10:21:47;;;;;;;27.50;13.25;;;5.40;67.70;;;;;;5037469;28;20486;-54
2022/01/24 10:24:30;;;;;;;28.10;13.10;;;5.40;67.70;;;;;;5037217;28;20026;-47
2022/01/24 10:27:10;;;;;;;24.33;12.02;;;5.50;68.20;;;;;;5037713;28;20052;-51
2022/01/24 10:29:54;;;;;;;22.58;12.35;;;5.50;67.90;;;;;;5037536;28;20362;-53
2022/01/24 10:32:49;;;;;;;23.70;11.37;;;5.40;68.00;;;;;;5037421;28;20087;-52
2022/01/24 10:35:28;;;;;;;23.05;11.90;;;5.40;67.80;;;;;;5037470;28;20021;-52
2022/01/24 10:38:17;;;;;;;24.75;13.00;;;5.50;67.90;;;;;;5037090;28;20033;-54
2022/01/24 10:41:08;;;;;;;28.10;13.75;;;5.50;68.30;;;;;;5036389;28;20025;-52
2022/01/24 10:43:33;;;;;;;22.92;11.55;;;5.50;67.50;;;;;;5037082;28;20034;-50
2022/01/24 10:46:00;;;;;;;27.23;13.68;;;5.50;68.50;;;;;;5037428;28;20051;-53
2022/01/24 10:48:47;;;;;;;25.55;13.25;;;5.60;67.70;;;;;;5036225;28;20030;-51
2022/01/24 10:51:21;;;;;;;24.13;11.82;;;5.60;68.20;;;;;;5036972;28;20385;-51
2022/01/24 10:53:53;;;;;;;25.05;12.65;;;5.60;68.40;;;;;;5036927;28;20030;-52
2022/01/24 10:56:29;;;;;;;23.00;12.00;;;5.70;68.20;;;;;;5037400;28;20521;-51
2022/01/24 10:59:02;;;;;;;24.85;12.80;;;5.70;68.50;;;;;;5037374;28;20076;-53
2022/01/24 11:01:29;;;;;;;23.90;12.67;;;5.80;67.90;;;;;;5036992;28;20033;-49
2022/01/24 11:04:04;;;;;;;24.08;12.15;;;5.90;68.00;;;;;;5037143;28;20032;-51
2022/01/24 11:06:35;;;;;;;27.02;15.40;;;5.90;68.10;;;;;;5037258;28;20033;-52
2022/01/24 11:09:23;;;;;;;22.48;12.45;;;6.00;67.90;;;;;;5037328;28;20045;-53
2022/01/24 11:11:53;;;;;;;23.58;13.20;;;6.00;67.70;;;;;;5037395;28;20021;-54
2022/01/24 11:14:21;;;;;;;25.48;12.43;;;6.10;68.00;;;;;;5036905;28;20032;-49
2022/01/24 11:16:48;;;;;;;25.83;12.80;;;6.10;67.90;;;;;;5036747;28;20088;-50
2022/01/24 11:19:20;;;;;;;24.15;13.15;;;6.10;67.70;;;;;;5036909;28;20032;-53
2022/01/24 11:21:47;;;;;;;25.23;12.88;;;6.20;67.60;;;;;;5036796;28;20081;-51
2022/01/24 11:24:21;;;;;;;22.48;12.82;;;6.20;68.20;;;;;;5036918;28;20018;-52
2022/01/24 11:26:47;;;;;;;25.52;12.63;;;6.20;67.80;;;;;;5036827;28;20037;-50
2022/01/24 11:29:16;;;;;;;29.40;13.40;;;6.30;67.80;;;;;;5036925;28;20037;-53
2022/01/24 11:31:55;;;;;;;24.98;14.15;;;6.30;68.00;;;;;;5036795;28;20017;-50
2022/01/24 11:34:51;;;;;;;26.08;13.55;;;6.40;67.90;;;;;;5036977;28;20381;-53
2022/01/24 11:37:45;;;;;;;23.45;12.95;;;6.40;67.30;;;;;;5036549;28;20034;-48
2022/01/24 11:40:17;;;;;;;25.80;13.05;;;6.40;67.40;;;;;;5036710;28;20026;-51
2022/01/24 11:42:46;;;;;;;28.92;16.75;;;6.40;67.50;;;;;;5036850;28;20034;-49
2022/01/24 11:45:15;;;;;;;28.92;16.25;;;6.50;67.50;;;;;;5036761;28;20021;-51
2022/01/24 11:47:42;;;;;;;24.45;13.57;;;6.50;67.30;;;;;;5037031;28;20018;-55
2022/01/24 11:50:26;;;;;;;23.80;12.45;;;6.50;67.40;;;;;;5037026;28;20030;-53
2022/01/24 11:52:56;;;;;;;25.33;12.93;;;6.60;67.20;;;;;;5039581;28;20057;-50
2022/01/24 11:55:31;;;;;;;25.30;13.70;;;6.50;67.00;;;;;;5040564;28;20041;-49
2022/01/24 11:58:07;;;;;;;23.15;13.15;;;6.60;67.20;;;;;;5040728;28;20049;-50
2022/01/24 12:00:39;;;;;;;23.95;12.32;;;6.50;67.30;;;;;;5040362;28;20025;-54
2022/01/24 12:03:23;;;;;;;26.63;13.50;;;6.60;66.80;;;;;;5039943;28;20485;-52
2022/01/24 12:05:53;;;;;;;23.75;12.32;;;6.60;66.60;;;;;;5039967;28;20375;-50
2022/01/24 12:08:42;;;;;;;25.77;13.85;;;6.60;66.90;;;;;;5039890;28;20040;-53
2022/01/24 12:11:19;;;;;;;24.60;13.50;;;6.60;66.80;;;;;;5039793;28;20163;-54
2022/01/24 12:14:01;;;;;;;24.25;13.68;;;6.60;67.20;;;;;;5040066;28;20101;-53
2022/01/24 12:16:42;;;;;;;27.15;14.38;;;6.70;66.90;;;;;;5039777;28;20100;-51
2022/01/24 12:19:10;;;;;;;28.13;15.07;;;6.70;67.10;;;;;;5040088;28;20120;-51
2022/01/24 12:21:41;;;;;;;26.65;15.15;;;6.80;67.00;;;;;;5039608;28;20456;-51
2022/01/24 12:24:09;;;;;;;27.05;14.25;;;6.90;66.80;;;;;;5039925;28;20030;-53
2022/01/24 12:26:43;;;;;;;23.95;13.77;;;6.80;67.00;;;;;;5039853;28;20030;-55
2022/01/24 12:29:40;;;;;;;29.55;15.07;;;6.90;66.70;;;;;;5039920;28;20021;-53
2022/01/24 12:32:21;;;;;;;24.65;15.27;;;6.90;67.20;;;;;;5039727;28;20030;-52
2022/01/24 12:34:47;;;;;;;27.77;14.98;;;6.90;66.60;;;;;;5039837;28;20053;-53
2022/01/24 12:37:33;;;;;;;25.60;14.73;;;6.90;66.40;;;;;;5039479;28;20033;-54
2022/01/24 12:40:08;;;;;;;32.45;16.58;;;6.90;66.40;;;;;;5039285;28;20030;-53
2022/01/24 12:42:47;;;;;;;44.08;18.23;;;6.90;66.80;;;;;;5039586;28;20033;-52
2022/01/24 12:48:12;;;;;;;31.10;16.73;;;7.00;66.50;;;;;;5039542;28;20117;-53
2022/01/24 12:50:52;;;;;;;30.38;16.40;;;7.00;66.40;;;;;;5039040;28;20466;-50
2022/01/24 12:53:19;;;;;;;28.27;15.35;;;7.00;66.80;;;;;;5039076;28;20036;-51
2022/01/24 12:55:55;;;;;;;32.80;16.85;;;7.00;66.60;;;;;;5039470;28;20030;-52
2022/01/24 12:58:30;;;;;;;29.83;17.27;;;7.10;66.70;;;;;;5039297;28;20036;-50
2022/01/24 13:00:56;;;;;;;34.33;17.42;;;7.00;66.80;;;;;;5039465;28;20105;-50
2022/01/24 13:03:22;;;;;;;30.85;17.63;;;7.00;66.20;;;;;;5037850;28;20025;-53
2022/01/24 13:05:48;;;;;;;33.95;19.70;;;7.00;66.40;;;;;;5039312;28;20017;-53
2022/01/24 13:08:16;;;;;;;31.83;19.05;;;7.00;66.50;;;;;;5039660;28;20398;-53
2022/01/24 13:10:47;;;;;;;36.13;19.35;;;7.00;66.60;;;;;;5038816;28;20022;-51
2022/01/24 13:13:15;;;;;;;29.98;16.73;;;7.00;66.80;;;;;;5038995;28;20036;-52
2022/01/24 13:21:22;;;;;;;32.20;19.10;;;7.10;66.70;;;;;;5038536;28;20056;-49
2022/01/24 13:24:00;;;;;;;34.55;18.30;;;7.20;66.90;;;;;;5038700;28;20025;-54
2022/01/24 13:26:27;;;;;;;35.47;18.67;;;7.30;66.10;;;;;;5038831;28;20101;-54
2022/01/24 13:29:04;;;;;;;32.35;19.77;;;7.40;66.20;;;;;;5038692;28;20026;-55
2022/01/24 13:31:30;;;;;;;31.25;19.25;;;7.50;66.30;;;;;;5039080;28;20072;-54
2022/01/24 13:33:57;;;;;;;39.10;21.48;;;7.50;66.10;;;;;;5038993;28;20053;-50
2022/01/24 13:36:23;;;;;;;33.65;18.60;;;7.60;66.40;;;;;;5038736;28;20033;-54
2022/01/24 13:38:51;;;;;;;33.55;19.38;;;7.50;65.90;;;;;;5038615;28;20069;-52
2022/01/24 13:41:20;;;;;;;32.83;18.15;;;7.50;66.10;;;;;;5038459;28;20029;-52
2022/01/24 13:43:45;;;;;;;35.70;20.02;;;7.50;66.20;;;;;;5039033;28;20034;-54
2022/01/24 13:46:28;;;;;;;32.30;18.75;;;7.40;66.00;;;;;;5038569;28;20028;-55
2022/01/24 13:48:58;;;;;;;32.33;18.05;;;7.40;65.80;;;;;;5038488;28;20032;-51
2022/01/24 13:51:37;;;;;;;33.72;19.13;;;7.30;66.20;;;;;;5038402;28;20056;-52
2022/01/24 13:54:11;;;;;;;33.15;18.38;;;7.40;66.20;;;;;;5037986;28;20461;-51
2022/01/24 13:56:45;;;;;;;31.83;18.17;;;7.50;66.10;;;;;;5038179;28;20031;-55
2022/01/24 13:59:20;;;;;;;29.00;17.83;;;7.50;66.30;;;;;;5038334;28;20104;-52
2022/01/24 14:01:54;;;;;;;30.52;18.48;;;7.70;66.50;;;;;;5037908;28;20120;-55
2022/01/24 14:04:49;;;;;;;27.73;16.75;;;7.80;66.30;;;;;;5037896;28;20449;-52
2022/01/24 14:07:22;;;;;;;30.42;17.60;;;7.80;66.00;;;;;;5038452;28;20024;-54
2022/01/24 14:09:52;;;;;;;28.48;17.27;;;7.80;65.50;;;;;;5038184;28;20534;-55
2022/01/24 14:12:32;;;;;;;31.35;17.90;;;7.70;65.50;;;;;;5037907;28;20033;-54
2022/01/24 14:15:07;;;;;;;30.75;18.45;;;7.60;65.60;;;;;;5037511;28;20056;-51
2022/01/24 14:20:19;;;;;;;30.42;18.75;;;7.50;65.40;;;;;;5038166;28;20048;-52
2022/01/24 14:22:51;;;;;;;29.45;16.98;;;7.50;66.00;;;;;;5037290;28;20462;-53
2022/01/24 14:25:22;;;;;;;29.05;16.13;;;7.60;66.20;;;;;;5037513;28;20021;-54
2022/01/24 14:27:58;;;;;;;33.70;17.48;;;7.80;65.70;;;;;;5037696;28;20025;-53
2022/01/24 14:30:27;;;;;;;36.00;18.15;;;7.80;65.80;;;;;;5037580;28;20026;-54
2022/01/24 14:33:03;;;;;;;34.78;19.98;;;8.00;65.80;;;;;;5038019;28;20029;-52
2022/01/24 14:35:32;;;;;;;29.92;17.92;;;8.10;65.80;;;;;;5037699;28;20030;-51
2022/01/24 14:37:59;;;;;;;30.70;17.83;;;8.20;65.50;;;;;;5037673;28;20039;-53
2022/01/24 14:40:51;;;;;;;32.40;18.20;;;8.20;65.30;;;;;;5037721;28;20029;-51
2022/01/24 14:46:13;;;;;;;41.63;25.20;;;8.10;65.30;;;;;;5037912;28;20036;-55
2022/01/24 14:48:52;;;;;;;33.38;19.55;;;8.20;65.40;;;;;;5037263;28;20057;-55
2022/01/24 14:51:23;;;;;;;29.52;17.15;;;8.10;65.10;;;;;;5037485;28;20072;-53